sensor_id;sensor_type;location;lat;lon;timestamp;P1;durP1;ratioP1;P2;durP2;ratioP2
60700;SDS011;46541;49.894;10.886;2022-12-11T00:01:30;29.15;;;15.15;;
60700;SDS011;46541;49.894;10.886;2022-12-11T00:03:57;29.40;;;15.52;;
60700;SDS011;46541;49.894;10.886;2022-12-11T00:06:23;27.05;;;14.55;;
60700;SDS011;46541;49.894;10.886;2022-12-11T00:08:51;27.02;;;15.25;;
60700;SDS011;46541;49.894;10.886;2022-12-11T00:11:19;25.92;;;14.38;;
60700;SDS011;46541;49.894;10.886;2022-12-11T00:13:47;25.45;;;13.93;;
60700;SDS011;46541;49.894;10.886;2022-12-11T00:16:14;28.02;;;13.48;;
60700;SDS011;46541;49.894;10.886;2022-12-11T00:18:41;26.50;;;14.32;;
60700;SDS011;46541;49.894;10.886;2022-12-11T00:21:09;27.13;;;13.68;;
60700;SDS011;46541;49.894;10.886;2022-12-11T00:23:38;28.05;;;14.75;;
60700;SDS011;46541;49.894;10.886;2022-12-11T00:26:06;27.40;;;14.98;;
60700;SDS011;46541;49.894;10.886;2022-12-11T00:28:34;28.40;;;15.70;;
60700;SDS011;46541;49.894;10.886;2022-12-11T00:31:05;28.55;;;14.63;;
60700;SDS011;46541;49.894;10.886;2022-12-11T00:33:32;27.10;;;13.55;;
60700;SDS011;46541;49.894;10.886;2022-12-11T00:35:59;29.17;;;15.68;;
60700;SDS011;46541;49.894;10.886;2022-12-11T00:38:26;26.35;;;14.20;;
60700;SDS011;46541;49.894;10.886;2022-12-11T00:40:57;23.00;;;13.23;;
60700;SDS011;46541;49.894;10.886;2022-12-11T00:43:24;28.30;;;14.55;;
60700;SDS011;46541;49.894;10.886;2022-12-11T00:45:51;26.77;;;14.73;;
60700;SDS011;46541;49.894;10.886;2022-12-11T00:48:18;29.45;;;15.52;;
60700;SDS011;46541;49.894;10.886;2022-12-11T00:50:45;29.27;;;15.32;;
60700;SDS011;46541;49.894;10.886;2022-12-11T00:53:11;31.75;;;16.33;;
60700;SDS011;46541;49.894;10.886;2022-12-11T00:55:39;28.75;;;15.95;;
60700;SDS011;46541;49.894;10.886;2022-12-11T00:58:06;30.92;;;16.83;;
60700;SDS011;46541;49.894;10.886;2022-12-11T01:00:34;28.73;;;16.42;;
60700;SDS011;46541;49.894;10.886;2022-12-11T01:03:01;29.05;;;15.80;;
60700;SDS011;46541;49.894;10.886;2022-12-11T01:05:28;27.95;;;15.88;;
60700;SDS011;46541;49.894;10.886;2022-12-11T01:07:55;31.98;;;16.30;;
60700;SDS011;46541;49.894;10.886;2022-12-11T01:10:22;33.33;;;16.98;;
60700;SDS011;46541;49.894;10.886;2022-12-11T01:12:49;35.83;;;16.88;;
60700;SDS011;46541;49.894;10.886;2022-12-11T01:15:23;26.98;;;14.10;;
60700;SDS011;46541;49.894;10.886;2022-12-11T01:17:52;28.20;;;14.70;;
60700;SDS011;46541;49.894;10.886;2022-12-11T01:20:19;26.55;;;15.32;;
60700;SDS011;46541;49.894;10.886;2022-12-11T01:22:47;32.78;;;17.88;;
60700;SDS011;46541;49.894;10.886;2022-12-11T01:25:17;34.17;;;17.23;;
60700;SDS011;46541;49.894;10.886;2022-12-11T01:27:45;29.70;;;16.35;;
60700;SDS011;46541;49.894;10.886;2022-12-11T01:30:11;29.30;;;14.95;;
60700;SDS011;46541;49.894;10.886;2022-12-11T01:32:39;27.40;;;16.02;;
60700;SDS011;46541;49.894;10.886;2022-12-11T01:35:06;31.15;;;16.63;;
60700;SDS011;46541;49.894;10.886;2022-12-11T01:37:34;31.77;;;16.42;;
60700;SDS011;46541;49.894;10.886;2022-12-11T01:40:00;33.03;;;16.52;;
60700;SDS011;46541;49.894;10.886;2022-12-11T01:42:28;27.98;;;14.93;;
60700;SDS011;46541;49.894;10.886;2022-12-11T01:45:30;29.95;;;15.50;;
60700;SDS011;46541;49.894;10.886;2022-12-11T01:48:15;23.73;;;13.77;;
60700;SDS011;46541;49.894;10.886;2022-12-11T01:50:59;26.92;;;14.13;;
60700;SDS011;46541;49.894;10.886;2022-12-11T01:55:59;27.02;;;14.02;;
60700;SDS011;46541;49.894;10.886;2022-12-11T01:58:28;30.45;;;15.77;;
60700;SDS011;46541;49.894;10.886;2022-12-11T02:00:59;27.60;;;14.50;;
60700;SDS011;46541;49.894;10.886;2022-12-11T02:03:27;25.52;;;14.52;;
60700;SDS011;46541;49.894;10.886;2022-12-11T02:05:58;26.63;;;15.27;;
60700;SDS011;46541;49.894;10.886;2022-12-11T02:08:28;25.17;;;14.75;;
60700;SDS011;46541;49.894;10.886;2022-12-11T02:13:36;27.08;;;14.68;;
60700;SDS011;46541;49.894;10.886;2022-12-11T02:16:27;30.80;;;15.63;;
60700;SDS011;46541;49.894;10.886;2022-12-11T02:21:48;25.48;;;13.63;;
60700;SDS011;46541;49.894;10.886;2022-12-11T02:37:40;27.10;;;15.82;;
60700;SDS011;46541;49.894;10.886;2022-12-11T02:40:10;29.23;;;14.68;;
60700;SDS011;46541;49.894;10.886;2022-12-11T02:42:40;26.08;;;15.07;;
60700;SDS011;46541;49.894;10.886;2022-12-11T02:45:09;26.40;;;13.63;;
60700;SDS011;46541;49.894;10.886;2022-12-11T02:47:38;26.48;;;14.70;;
60700;SDS011;46541;49.894;10.886;2022-12-11T02:50:06;23.17;;;13.80;;
60700;SDS011;46541;49.894;10.886;2022-12-11T02:52:36;26.13;;;13.52;;
60700;SDS011;46541;49.894;10.886;2022-12-11T02:55:07;22.70;;;12.93;;
60700;SDS011;46541;49.894;10.886;2022-12-11T02:57:56;26.23;;;14.68;;
60700;SDS011;46541;49.894;10.886;2022-12-11T03:00:29;28.65;;;15.20;;
60700;SDS011;46541;49.894;10.886;2022-12-11T03:02:56;23.60;;;13.43;;
60700;SDS011;46541;49.894;10.886;2022-12-11T03:05:23;28.48;;;15.98;;
60700;SDS011;46541;49.894;10.886;2022-12-11T03:07:52;27.60;;;14.75;;
60700;SDS011;46541;49.894;10.886;2022-12-11T03:10:19;27.77;;;15.25;;
60700;SDS011;46541;49.894;10.886;2022-12-11T03:12:48;28.25;;;16.10;;
60700;SDS011;46541;49.894;10.886;2022-12-11T03:15:19;31.67;;;15.25;;
60700;SDS011;46541;49.894;10.886;2022-12-11T03:23:17;30.75;;;15.90;;
60700;SDS011;46541;49.894;10.886;2022-12-11T03:25:54;27.63;;;14.98;;
60700;SDS011;46541;49.894;10.886;2022-12-11T03:28:26;29.65;;;15.75;;
60700;SDS011;46541;49.894;10.886;2022-12-11T03:30:57;28.65;;;15.38;;
60700;SDS011;46541;49.894;10.886;2022-12-11T03:33:34;29.23;;;16.40;;
60700;SDS011;46541;49.894;10.886;2022-12-11T03:36:10;32.70;;;16.50;;
60700;SDS011;46541;49.894;10.886;2022-12-11T03:39:02;29.95;;;15.20;;
60700;SDS011;46541;49.894;10.886;2022-12-11T03:41:32;31.33;;;16.05;;
60700;SDS011;46541;49.894;10.886;2022-12-11T03:44:02;33.50;;;15.77;;
60700;SDS011;46541;49.894;10.886;2022-12-11T03:46:30;29.98;;;15.68;;
60700;SDS011;46541;49.894;10.886;2022-12-11T03:49:00;29.20;;;15.20;;
60700;SDS011;46541;49.894;10.886;2022-12-11T03:51:31;33.20;;;17.00;;
60700;SDS011;46541;49.894;10.886;2022-12-11T03:54:00;35.65;;;16.48;;
60700;SDS011;46541;49.894;10.886;2022-12-11T03:56:29;32.20;;;16.30;;
60700;SDS011;46541;49.894;10.886;2022-12-11T03:58:58;28.60;;;16.30;;
60700;SDS011;46541;49.894;10.886;2022-12-11T04:01:24;29.00;;;15.77;;
60700;SDS011;46541;49.894;10.886;2022-12-11T04:03:51;29.80;;;14.63;;
60700;SDS011;46541;49.894;10.886;2022-12-11T04:06:18;24.48;;;14.18;;
60700;SDS011;46541;49.894;10.886;2022-12-11T04:08:45;30.35;;;15.68;;
60700;SDS011;46541;49.894;10.886;2022-12-11T04:11:12;30.95;;;16.58;;
60700;SDS011;46541;49.894;10.886;2022-12-11T04:13:57;31.92;;;15.48;;
60700;SDS011;46541;49.894;10.886;2022-12-11T04:16:53;25.20;;;14.57;;
60700;SDS011;46541;49.894;10.886;2022-12-11T04:19:20;27.83;;;14.98;;
60700;SDS011;46541;49.894;10.886;2022-12-11T04:22:08;27.58;;;14.93;;
60700;SDS011;46541;49.894;10.886;2022-12-11T04:24:39;27.67;;;14.65;;
60700;SDS011;46541;49.894;10.886;2022-12-11T04:27:06;33.10;;;15.77;;
60700;SDS011;46541;49.894;10.886;2022-12-11T04:29:32;30.45;;;15.98;;
60700;SDS011;46541;49.894;10.886;2022-12-11T04:31:59;30.13;;;15.85;;
60700;SDS011;46541;49.894;10.886;2022-12-11T04:34:26;33.08;;;16.23;;
60700;SDS011;46541;49.894;10.886;2022-12-11T04:36:53;29.80;;;15.48;;
60700;SDS011;46541;49.894;10.886;2022-12-11T04:39:19;29.25;;;15.65;;
60700;SDS011;46541;49.894;10.886;2022-12-11T04:41:46;26.77;;;15.40;;
60700;SDS011;46541;49.894;10.886;2022-12-11T04:44:13;27.50;;;15.82;;
60700;SDS011;46541;49.894;10.886;2022-12-11T04:46:39;33.45;;;16.92;;
60700;SDS011;46541;49.894;10.886;2022-12-11T04:49:06;28.92;;;15.48;;
60700;SDS011;46541;49.894;10.886;2022-12-11T04:51:33;28.17;;;15.55;;
60700;SDS011;46541;49.894;10.886;2022-12-11T04:54:00;28.10;;;15.45;;
60700;SDS011;46541;49.894;10.886;2022-12-11T04:56:26;26.23;;;15.43;;
60700;SDS011;46541;49.894;10.886;2022-12-11T04:58:53;30.27;;;15.90;;
60700;SDS011;46541;49.894;10.886;2022-12-11T05:01:21;29.73;;;16.35;;
60700;SDS011;46541;49.894;10.886;2022-12-11T05:03:48;30.27;;;16.73;;
60700;SDS011;46541;49.894;10.886;2022-12-11T05:06:15;27.85;;;15.85;;
60700;SDS011;46541;49.894;10.886;2022-12-11T05:08:42;34.38;;;16.88;;
60700;SDS011;46541;49.894;10.886;2022-12-11T05:11:12;29.42;;;15.73;;
60700;SDS011;46541;49.894;10.886;2022-12-11T05:13:40;30.00;;;16.20;;
60700;SDS011;46541;49.894;10.886;2022-12-11T05:16:09;27.98;;;15.32;;
60700;SDS011;46541;49.894;10.886;2022-12-11T05:18:37;28.10;;;15.88;;
60700;SDS011;46541;49.894;10.886;2022-12-11T05:21:06;32.67;;;17.23;;
60700;SDS011;46541;49.894;10.886;2022-12-11T05:23:34;30.67;;;16.23;;
60700;SDS011;46541;49.894;10.886;2022-12-11T05:26:06;24.35;;;14.27;;
60700;SDS011;46541;49.894;10.886;2022-12-11T05:28:36;27.50;;;15.52;;
60700;SDS011;46541;49.894;10.886;2022-12-11T05:31:05;29.55;;;15.27;;
60700;SDS011;46541;49.894;10.886;2022-12-11T05:33:34;26.80;;;15.25;;
60700;SDS011;46541;49.894;10.886;2022-12-11T05:36:00;26.48;;;15.02;;
60700;SDS011;46541;49.894;10.886;2022-12-11T05:38:27;26.75;;;14.68;;
60700;SDS011;46541;49.894;10.886;2022-12-11T05:40:58;27.10;;;14.45;;
60700;SDS011;46541;49.894;10.886;2022-12-11T05:43:27;26.00;;;14.27;;
60700;SDS011;46541;49.894;10.886;2022-12-11T05:45:55;25.95;;;14.10;;
60700;SDS011;46541;49.894;10.886;2022-12-11T05:48:22;25.92;;;13.73;;
60700;SDS011;46541;49.894;10.886;2022-12-11T05:50:56;26.08;;;13.68;;
60700;SDS011;46541;49.894;10.886;2022-12-11T05:53:24;24.90;;;13.97;;
60700;SDS011;46541;49.894;10.886;2022-12-11T05:55:51;25.13;;;13.52;;
60700;SDS011;46541;49.894;10.886;2022-12-11T05:58:18;27.77;;;15.13;;
60700;SDS011;46541;49.894;10.886;2022-12-11T06:00:46;27.80;;;14.35;;
60700;SDS011;46541;49.894;10.886;2022-12-11T06:03:13;25.90;;;14.15;;
60700;SDS011;46541;49.894;10.886;2022-12-11T06:05:40;27.77;;;15.45;;
60700;SDS011;46541;49.894;10.886;2022-12-11T06:08:08;27.58;;;15.23;;
60700;SDS011;46541;49.894;10.886;2022-12-11T06:10:35;25.08;;;14.40;;
60700;SDS011;46541;49.894;10.886;2022-12-11T06:13:01;31.60;;;16.20;;
60700;SDS011;46541;49.894;10.886;2022-12-11T06:15:28;27.73;;;14.93;;
60700;SDS011;46541;49.894;10.886;2022-12-11T06:17:55;26.90;;;14.60;;
60700;SDS011;46541;49.894;10.886;2022-12-11T06:20:22;26.17;;;15.32;;
60700;SDS011;46541;49.894;10.886;2022-12-11T06:22:49;29.65;;;15.27;;
60700;SDS011;46541;49.894;10.886;2022-12-11T06:25:16;34.00;;;15.95;;
60700;SDS011;46541;49.894;10.886;2022-12-11T06:27:43;29.15;;;15.88;;
60700;SDS011;46541;49.894;10.886;2022-12-11T06:30:10;31.48;;;15.68;;
60700;SDS011;46541;49.894;10.886;2022-12-11T06:32:37;33.00;;;15.23;;
60700;SDS011;46541;49.894;10.886;2022-12-11T06:35:04;27.40;;;15.35;;
60700;SDS011;46541;49.894;10.886;2022-12-11T06:37:31;25.63;;;13.90;;
60700;SDS011;46541;49.894;10.886;2022-12-11T06:39:59;28.48;;;15.38;;
60700;SDS011;46541;49.894;10.886;2022-12-11T06:42:26;25.58;;;14.50;;
60700;SDS011;46541;49.894;10.886;2022-12-11T06:44:55;23.10;;;12.43;;
60700;SDS011;46541;49.894;10.886;2022-12-11T06:47:22;24.00;;;13.52;;
60700;SDS011;46541;49.894;10.886;2022-12-11T06:49:49;23.52;;;13.07;;
60700;SDS011;46541;49.894;10.886;2022-12-11T06:52:16;24.42;;;13.52;;
60700;SDS011;46541;49.894;10.886;2022-12-11T06:54:43;23.17;;;12.15;;
60700;SDS011;46541;49.894;10.886;2022-12-11T06:57:10;25.83;;;13.85;;
60700;SDS011;46541;49.894;10.886;2022-12-11T06:59:37;22.50;;;12.10;;
60700;SDS011;46541;49.894;10.886;2022-12-11T07:02:04;21.70;;;12.38;;
60700;SDS011;46541;49.894;10.886;2022-12-11T07:04:31;23.67;;;12.10;;
60700;SDS011;46541;49.894;10.886;2022-12-11T07:06:58;21.35;;;11.02;;
60700;SDS011;46541;49.894;10.886;2022-12-11T07:09:25;22.70;;;12.60;;
60700;SDS011;46541;49.894;10.886;2022-12-11T07:11:52;22.48;;;12.52;;
60700;SDS011;46541;49.894;10.886;2022-12-11T07:14:19;20.27;;;11.90;;
60700;SDS011;46541;49.894;10.886;2022-12-11T07:16:45;22.42;;;12.02;;
60700;SDS011;46541;49.894;10.886;2022-12-11T07:19:12;19.73;;;10.68;;
60700;SDS011;46541;49.894;10.886;2022-12-11T07:21:39;27.23;;;11.63;;
60700;SDS011;46541;49.894;10.886;2022-12-11T07:24:06;24.60;;;12.02;;
60700;SDS011;46541;49.894;10.886;2022-12-11T07:26:33;23.80;;;12.68;;
60700;SDS011;46541;49.894;10.886;2022-12-11T07:29:00;26.80;;;13.52;;
60700;SDS011;46541;49.894;10.886;2022-12-11T07:31:27;23.98;;;12.60;;
60700;SDS011;46541;49.894;10.886;2022-12-11T07:33:55;23.23;;;12.50;;
60700;SDS011;46541;49.894;10.886;2022-12-11T07:36:25;25.33;;;13.73;;
60700;SDS011;46541;49.894;10.886;2022-12-11T07:38:52;37.47;;;16.70;;
60700;SDS011;46541;49.894;10.886;2022-12-11T07:41:19;32.13;;;15.40;;
60700;SDS011;46541;49.894;10.886;2022-12-11T07:43:46;28.40;;;15.70;;
60700;SDS011;46541;49.894;10.886;2022-12-11T07:46:15;36.45;;;22.17;;
60700;SDS011;46541;49.894;10.886;2022-12-11T07:48:44;29.40;;;17.20;;
60700;SDS011;46541;49.894;10.886;2022-12-11T07:51:13;29.88;;;16.35;;
60700;SDS011;46541;49.894;10.886;2022-12-11T07:53:46;22.40;;;11.98;;
60700;SDS011;46541;49.894;10.886;2022-12-11T07:56:15;19.67;;;10.98;;
60700;SDS011;46541;49.894;10.886;2022-12-11T07:58:43;24.52;;;14.35;;
60700;SDS011;46541;49.894;10.886;2022-12-11T08:01:14;26.45;;;15.40;;
60700;SDS011;46541;49.894;10.886;2022-12-11T08:03:46;20.15;;;11.00;;
60700;SDS011;46541;49.894;10.886;2022-12-11T08:06:13;20.35;;;12.13;;
60700;SDS011;46541;49.894;10.886;2022-12-11T08:08:40;20.13;;;12.18;;
60700;SDS011;46541;49.894;10.886;2022-12-11T08:11:08;21.73;;;12.68;;
60700;SDS011;46541;49.894;10.886;2022-12-11T08:13:37;19.90;;;10.60;;
60700;SDS011;46541;49.894;10.886;2022-12-11T08:16:05;20.85;;;11.15;;
60700;SDS011;46541;49.894;10.886;2022-12-11T08:18:33;19.38;;;12.13;;
60700;SDS011;46541;49.894;10.886;2022-12-11T08:21:15;21.27;;;10.95;;
60700;SDS011;46541;49.894;10.886;2022-12-11T08:23:49;17.35;;;10.20;;
60700;SDS011;46541;49.894;10.886;2022-12-11T08:26:17;21.08;;;10.82;;
60700;SDS011;46541;49.894;10.886;2022-12-11T08:28:47;20.65;;;11.05;;
60700;SDS011;46541;49.894;10.886;2022-12-11T08:31:14;22.83;;;12.45;;
60700;SDS011;46541;49.894;10.886;2022-12-11T08:33:42;21.55;;;12.55;;
60700;SDS011;46541;49.894;10.886;2022-12-11T08:36:10;31.83;;;16.58;;
60700;SDS011;46541;49.894;10.886;2022-12-11T08:38:39;36.42;;;18.70;;
60700;SDS011;46541;49.894;10.886;2022-12-11T08:43:36;46.75;;;21.25;;
60700;SDS011;46541;49.894;10.886;2022-12-11T08:46:03;32.17;;;16.65;;
60700;SDS011;46541;49.894;10.886;2022-12-11T08:48:31;25.50;;;13.60;;
60700;SDS011;46541;49.894;10.886;2022-12-11T08:50:59;27.45;;;14.50;;
60700;SDS011;46541;49.894;10.886;2022-12-11T08:53:27;24.83;;;12.93;;
60700;SDS011;46541;49.894;10.886;2022-12-11T08:58:29;25.13;;;12.70;;
60700;SDS011;46541;49.894;10.886;2022-12-11T09:00:55;25.38;;;13.35;;
60700;SDS011;46541;49.894;10.886;2022-12-11T09:03:23;22.33;;;11.55;;
60700;SDS011;46541;49.894;10.886;2022-12-11T09:05:50;29.27;;;16.98;;
60700;SDS011;46541;49.894;10.886;2022-12-11T09:08:17;21.98;;;12.50;;
60700;SDS011;46541;49.894;10.886;2022-12-11T09:10:43;21.52;;;13.68;;
60700;SDS011;46541;49.894;10.886;2022-12-11T09:13:10;25.42;;;14.90;;
60700;SDS011;46541;49.894;10.886;2022-12-11T09:15:38;30.25;;;18.13;;
60700;SDS011;46541;49.894;10.886;2022-12-11T09:18:06;32.50;;;17.10;;
60700;SDS011;46541;49.894;10.886;2022-12-11T09:20:33;29.83;;;15.55;;
60700;SDS011;46541;49.894;10.886;2022-12-11T09:23:00;26.63;;;14.48;;
60700;SDS011;46541;49.894;10.886;2022-12-11T09:25:27;25.55;;;13.07;;
60700;SDS011;46541;49.894;10.886;2022-12-11T09:27:54;27.42;;;14.88;;
60700;SDS011;46541;49.894;10.886;2022-12-11T09:30:21;24.77;;;12.98;;
60700;SDS011;46541;49.894;10.886;2022-12-11T09:32:48;27.90;;;15.63;;
60700;SDS011;46541;49.894;10.886;2022-12-11T09:35:14;23.00;;;14.02;;
60700;SDS011;46541;49.894;10.886;2022-12-11T09:37:41;21.98;;;12.35;;
60700;SDS011;46541;49.894;10.886;2022-12-11T09:40:09;23.33;;;12.55;;
60700;SDS011;46541;49.894;10.886;2022-12-11T09:45:19;21.60;;;11.88;;
60700;SDS011;46541;49.894;10.886;2022-12-11T09:47:47;21.77;;;12.25;;
60700;SDS011;46541;49.894;10.886;2022-12-11T09:53:02;23.38;;;13.50;;
60700;SDS011;46541;49.894;10.886;2022-12-11T09:56:03;28.38;;;14.15;;
60700;SDS011;46541;49.894;10.886;2022-12-11T10:01:14;30.25;;;15.90;;
60700;SDS011;46541;49.894;10.886;2022-12-11T10:03:54;46.13;;;21.70;;
60700;SDS011;46541;49.894;10.886;2022-12-11T10:06:43;35.10;;;18.92;;
60700;SDS011;46541;49.894;10.886;2022-12-11T10:09:35;27.60;;;14.75;;
60700;SDS011;46541;49.894;10.886;2022-12-11T10:17:35;22.02;;;12.90;;
60700;SDS011;46541;49.894;10.886;2022-12-11T10:20:13;24.05;;;13.52;;
60700;SDS011;46541;49.894;10.886;2022-12-11T10:22:52;25.30;;;14.15;;
60700;SDS011;46541;49.894;10.886;2022-12-11T10:25:25;30.60;;;17.17;;
60700;SDS011;46541;49.894;10.886;2022-12-11T10:27:55;20.90;;;12.00;;
60700;SDS011;46541;49.894;10.886;2022-12-11T10:30:27;23.58;;;13.88;;
60700;SDS011;46541;49.894;10.886;2022-12-11T10:33:14;18.95;;;11.95;;
60700;SDS011;46541;49.894;10.886;2022-12-11T10:36:00;20.67;;;12.20;;
60700;SDS011;46541;49.894;10.886;2022-12-11T10:38:31;22.33;;;12.10;;
60700;SDS011;46541;49.894;10.886;2022-12-11T10:41:13;20.05;;;11.57;;
60700;SDS011;46541;49.894;10.886;2022-12-11T10:43:47;19.10;;;11.57;;
60700;SDS011;46541;49.894;10.886;2022-12-11T10:46:16;21.42;;;11.52;;
60700;SDS011;46541;49.894;10.886;2022-12-11T10:48:46;26.20;;;12.77;;
60700;SDS011;46541;49.894;10.886;2022-12-11T10:51:20;23.75;;;13.52;;
60700;SDS011;46541;49.894;10.886;2022-12-11T10:53:52;24.48;;;12.65;;
60700;SDS011;46541;49.894;10.886;2022-12-11T10:58:57;23.55;;;12.43;;
60700;SDS011;46541;49.894;10.886;2022-12-11T11:01:28;35.20;;;17.30;;
60700;SDS011;46541;49.894;10.886;2022-12-11T11:04:13;33.45;;;17.35;;
60700;SDS011;46541;49.894;10.886;2022-12-11T11:06:44;28.10;;;18.10;;
60700;SDS011;46541;49.894;10.886;2022-12-11T11:09:30;22.58;;;13.60;;
60700;SDS011;46541;49.894;10.886;2022-12-11T11:12:00;20.27;;;12.25;;
60700;SDS011;46541;49.894;10.886;2022-12-11T11:14:33;17.85;;;11.15;;
60700;SDS011;46541;49.894;10.886;2022-12-11T11:17:00;19.13;;;11.93;;
60700;SDS011;46541;49.894;10.886;2022-12-11T11:19:30;19.85;;;10.68;;
60700;SDS011;46541;49.894;10.886;2022-12-11T11:22:00;18.20;;;10.15;;
60700;SDS011;46541;49.894;10.886;2022-12-11T11:24:38;16.90;;;10.75;;
60700;SDS011;46541;49.894;10.886;2022-12-11T11:27:50;17.80;;;10.32;;
60700;SDS011;46541;49.894;10.886;2022-12-11T11:30:02;18.05;;;10.50;;
60700;SDS011;46541;49.894;10.886;2022-12-11T11:32:42;20.50;;;10.82;;
60700;SDS011;46541;49.894;10.886;2022-12-11T11:37:37;16.60;;;9.43;;
60700;SDS011;46541;49.894;10.886;2022-12-11T11:40:14;16.15;;;9.50;;
60700;SDS011;46541;49.894;10.886;2022-12-11T11:45:42;15.80;;;9.70;;
60700;SDS011;46541;49.894;10.886;2022-12-11T11:51:24;16.83;;;9.52;;
60700;SDS011;46541;49.894;10.886;2022-12-11T12:00:00;16.70;;;9.73;;
60700;SDS011;46541;49.894;10.886;2022-12-11T12:02:42;17.45;;;10.25;;
60700;SDS011;46541;49.894;10.886;2022-12-11T12:05:12;18.58;;;9.63;;
60700;SDS011;46541;49.894;10.886;2022-12-11T12:07:44;14.95;;;8.90;;
60700;SDS011;46541;49.894;10.886;2022-12-11T12:10:21;15.95;;;9.35;;
60700;SDS011;46541;49.894;10.886;2022-12-11T12:13:06;13.32;;;8.32;;
60700;SDS011;46541;49.894;10.886;2022-12-11T12:17:13;12.48;;;7.72;;
60700;SDS011;46541;49.894;10.886;2022-12-11T12:19:35;13.07;;;7.82;;
60700;SDS011;46541;49.894;10.886;2022-12-11T12:22:19;14.50;;;8.13;;
60700;SDS011;46541;49.894;10.886;2022-12-11T12:27:53;11.85;;;6.70;;
60700;SDS011;46541;49.894;10.886;2022-12-11T12:30:30;13.75;;;7.43;;
60700;SDS011;46541;49.894;10.886;2022-12-11T12:36:16;12.70;;;7.30;;
60700;SDS011;46541;49.894;10.886;2022-12-11T12:41:28;10.88;;;6.28;;
60700;SDS011;46541;49.894;10.886;2022-12-11T12:44:18;13.25;;;6.55;;
60700;SDS011;46541;49.894;10.886;2022-12-11T12:46:56;15.13;;;7.55;;
60700;SDS011;46541;49.894;10.886;2022-12-11T12:52:00;14.30;;;8.40;;
60700;SDS011;46541;49.894;10.886;2022-12-11T12:54:30;14.43;;;7.93;;
60700;SDS011;46541;49.894;10.886;2022-12-11T12:56:58;12.02;;;6.95;;
60700;SDS011;46541;49.894;10.886;2022-12-11T12:59:28;10.73;;;6.93;;
60700;SDS011;46541;49.894;10.886;2022-12-11T13:01:56;11.23;;;6.80;;
60700;SDS011;46541;49.894;10.886;2022-12-11T13:04:27;13.13;;;7.15;;
60700;SDS011;46541;49.894;10.886;2022-12-11T13:07:21;12.23;;;7.00;;
60700;SDS011;46541;49.894;10.886;2022-12-11T13:12:51;14.20;;;7.82;;
60700;SDS011;46541;49.894;10.886;2022-12-11T13:15:25;13.20;;;7.55;;
60700;SDS011;46541;49.894;10.886;2022-12-11T13:18:29;14.07;;;7.70;;
60700;SDS011;46541;49.894;10.886;2022-12-11T13:20:56;12.75;;;7.63;;
60700;SDS011;46541;49.894;10.886;2022-12-11T13:23:33;14.10;;;7.43;;
60700;SDS011;46541;49.894;10.886;2022-12-11T13:26:01;12.55;;;7.80;;
60700;SDS011;46541;49.894;10.886;2022-12-11T13:28:33;14.25;;;7.95;;
60700;SDS011;46541;49.894;10.886;2022-12-11T13:33:46;14.85;;;8.07;;
60700;SDS011;46541;49.894;10.886;2022-12-11T13:39:36;13.05;;;6.90;;
60700;SDS011;46541;49.894;10.886;2022-12-11T13:41:46;15.27;;;8.52;;
60700;SDS011;46541;49.894;10.886;2022-12-11T13:44:27;11.38;;;6.82;;
60700;SDS011;46541;49.894;10.886;2022-12-11T13:46:56;12.40;;;7.18;;
60700;SDS011;46541;49.894;10.886;2022-12-11T13:49:26;16.17;;;10.18;;
60700;SDS011;46541;49.894;10.886;2022-12-11T13:51:57;13.18;;;7.20;;
60700;SDS011;46541;49.894;10.886;2022-12-11T13:54:26;14.27;;;8.07;;
60700;SDS011;46541;49.894;10.886;2022-12-11T13:56:58;16.00;;;8.95;;
60700;SDS011;46541;49.894;10.886;2022-12-11T13:59:33;13.35;;;7.80;;
60700;SDS011;46541;49.894;10.886;2022-12-11T14:02:23;15.15;;;8.48;;
60700;SDS011;46541;49.894;10.886;2022-12-11T14:04:54;14.98;;;8.68;;
60700;SDS011;46541;49.894;10.886;2022-12-11T14:07:28;17.60;;;8.20;;
60700;SDS011;46541;49.894;10.886;2022-12-11T14:09:59;15.73;;;8.15;;
60700;SDS011;46541;49.894;10.886;2022-12-11T14:12:31;16.55;;;8.30;;
60700;SDS011;46541;49.894;10.886;2022-12-11T14:14:58;13.63;;;7.72;;
60700;SDS011;46541;49.894;10.886;2022-12-11T14:17:28;15.27;;;8.02;;
60700;SDS011;46541;49.894;10.886;2022-12-11T14:19:58;12.82;;;7.80;;
60700;SDS011;46541;49.894;10.886;2022-12-11T14:22:27;13.38;;;8.43;;
60700;SDS011;46541;49.894;10.886;2022-12-11T14:24:56;12.55;;;8.18;;
60700;SDS011;46541;49.894;10.886;2022-12-11T14:27:26;15.80;;;9.20;;
60700;SDS011;46541;49.894;10.886;2022-12-11T14:29:53;16.70;;;9.05;;
60700;SDS011;46541;49.894;10.886;2022-12-11T14:32:30;13.27;;;7.95;;
60700;SDS011;46541;49.894;10.886;2022-12-11T14:35:01;15.57;;;8.63;;
60700;SDS011;46541;49.894;10.886;2022-12-11T14:37:31;14.50;;;7.78;;
60700;SDS011;46541;49.894;10.886;2022-12-11T14:40:08;14.88;;;8.70;;
60700;SDS011;46541;49.894;10.886;2022-12-11T14:42:45;23.58;;;10.80;;
60700;SDS011;46541;49.894;10.886;2022-12-11T14:45:41;12.68;;;6.95;;
60700;SDS011;46541;49.894;10.886;2022-12-11T14:48:22;11.90;;;7.70;;
60700;SDS011;46541;49.894;10.886;2022-12-11T14:50:55;14.60;;;8.55;;
60700;SDS011;46541;49.894;10.886;2022-12-11T14:53:25;17.70;;;9.10;;
60700;SDS011;46541;49.894;10.886;2022-12-11T14:55:59;16.23;;;9.23;;
60700;SDS011;46541;49.894;10.886;2022-12-11T14:58:29;17.35;;;8.98;;
60700;SDS011;46541;49.894;10.886;2022-12-11T15:01:06;16.25;;;8.32;;
60700;SDS011;46541;49.894;10.886;2022-12-11T15:03:46;16.65;;;9.02;;
60700;SDS011;46541;49.894;10.886;2022-12-11T15:06:29;14.63;;;8.50;;
60700;SDS011;46541;49.894;10.886;2022-12-11T15:11:47;16.13;;;8.70;;
60700;SDS011;46541;49.894;10.886;2022-12-11T15:14:15;14.52;;;8.10;;
60700;SDS011;46541;49.894;10.886;2022-12-11T15:16:44;21.73;;;10.30;;
60700;SDS011;46541;49.894;10.886;2022-12-11T15:19:20;18.33;;;10.85;;
60700;SDS011;46541;49.894;10.886;2022-12-11T15:21:50;17.77;;;10.18;;
60700;SDS011;46541;49.894;10.886;2022-12-11T15:24:30;16.67;;;9.05;;
60700;SDS011;46541;49.894;10.886;2022-12-11T15:27:06;18.50;;;10.82;;
60700;SDS011;46541;49.894;10.886;2022-12-11T15:29:58;21.58;;;10.05;;
60700;SDS011;46541;49.894;10.886;2022-12-11T15:32:24;17.55;;;8.40;;
60700;SDS011;46541;49.894;10.886;2022-12-11T15:34:52;15.65;;;8.98;;
60700;SDS011;46541;49.894;10.886;2022-12-11T15:37:29;17.63;;;8.70;;
60700;SDS011;46541;49.894;10.886;2022-12-11T15:40:03;17.02;;;8.77;;
60700;SDS011;46541;49.894;10.886;2022-12-11T15:42:31;18.77;;;11.00;;
60700;SDS011;46541;49.894;10.886;2022-12-11T15:45:02;24.48;;;12.30;;
60700;SDS011;46541;49.894;10.886;2022-12-11T15:47:31;25.23;;;13.57;;
60700;SDS011;46541;49.894;10.886;2022-12-11T15:49:59;18.52;;;9.95;;
60700;SDS011;46541;49.894;10.886;2022-12-11T15:52:47;15.63;;;8.80;;
60700;SDS011;46541;49.894;10.886;2022-12-11T15:55:15;16.90;;;9.07;;
60700;SDS011;46541;49.894;10.886;2022-12-11T15:57:44;16.42;;;9.00;;
60700;SDS011;46541;49.894;10.886;2022-12-11T16:00:15;12.68;;;8.13;;